Airfield :
LOGIN :

Register | Disclaimer

   EN    FR    IT 

 










Legend :    VFR   Marginal VFR   IFR   Intensive IFR   Very Intensive IFR
Visi :
Ceiling :
>= 8 km
>= 3000ft
5 to 8 km
1000 to 3000 ft
1500m to 5 km
500 to 1000 ft
800 to 1500m
200 to 500 ft
< 800m
< 200 ft
Symbols :   Thunderstorms  Fog  Heavy snow  Heavy precipitations  Wind > 20 kt
SIGMETs :     Misc.  Thunderstorms  Icing  Turbulence  Mountain Waves  Volcanic Ashes






- Airport Elevation : 13 ft
- IATA code : SNR


LFRZ - St-Nazaire

CURRENT METAR :
  • 251600Z AUTO 27012KT 9999 FEW036/// SCT050/// BKN074/// ///TCU 09/06 Q1009 TEMPO 27020G45KT 3000 SHRA

EXPIRED METARs :
  • 251530Z AUTO 28024G38KT 250V310 8000 2300 +RA BKN030/// BKN035/// ///CB 09/05 Q1010 TEMPO 3000 SHRA
  • 251500Z AUTO 27018G29KT 8000 FEW024 11/07 Q1009 TEMPO 27020G45KT 3000 SHRA BKN020TCU
  • 251430Z AUTO 28020G32KT 7000 -RA FEW018/// BKN038/// BKN054/// ///CB 09/06 Q1010 TEMPO 27020G45KT 3000 SHRA
  • 251400Z AUTO 27020G31KT 9999 -RA FEW029/// BKN034/// BKN043/// ///CB 10/06 Q1010 TEMPO 27020G45KT 3000 SHRA
  • 251330Z AUTO 27021KT 9999 BKN029/// OVC036/// ///CB 12/06 Q1010 TEMPO 27020G45KT 3000 SHRA

TAF TAF LFRZ
Valid from the 25 at 12:00 until the 26 at 12:00 UTC


251100Z 2512/2612 27020G30KT 9999 BKN025
TEMPO 2512/2609 3000 SHRA BKN020TCU
TEMPO 2512/2524 27020G45KT
BECMG 2604/2606 29015G25KT



MET'MAP, your aeronautical weather chart ! - Copyright ORBIFLY December 2007 - Disclaimer

ORBIFLY MET'MAP TEAM :

Programming & Development : Alexandra Zaïnal
Concept & original design : Baudouin d'Aumeries
Assistance for programming : Marc-Olivier Méhu
Technical & hardware support : Manuel Goepfert

Contact : metmap@orbifly.com




SOURCES & CREDITS :

   NOAA